logo
Rechercher aéroport 
image banner adimage banner adimage banner ad
image banner ad

EPAU - Niepruszewo

Situé à , Poland

ICAO - , IATA -

Données fournies par Airmate  

Information générale

Coordonnées: N52°22'17" E16°35'5"
Élévation : 286 feet MSL.
 
Voir autres Aéroports à Greater Poland

Données opérationnelles

Special qualification required
Heure actuelle UTC:
Heure actuelle locale:
Météo à : EPPO - Poznan/Lawica ( 17 km )
METAR: EPPO 032100Z 09011KT CAVOK 10/06 Q1007
TAF: TAF EPPO 031730Z 0318/0418 10010KT 9999 BKN048 BECMG 0321/0324 BKN008 TEMPO 0400/0408 BKN003 BKN008 BECMG 0410/0412 BKN016 TEMPO 0412/0418 -SHRA BKN012CB BECMG 0415/0418 04008KT
Voir NOTAMs / SUP AIP / TFR affectant cet aéroport [VIEW]
Fréquences de communication: [VIEW]

Pistes:

Coordonnées de l'aéroport

Adresse: Poland

Vue satellite de EPAU